Time;durP1;ratioP1;P1;durP2;ratioP2;P2;SDS_P1;SDS_P2;PMS_P1;PMS_P2;Temp;Humidity;BMP_temperature;BMP_pressure;BME280_temperature;BME280_humidity;BME280_pressure;Samples;Min_cycle;Max_cycle;Signal;HPM_P1;HPM_P2
2022/08/17 00:00:30;;;;;;;49.15;30.55;;;19.50;99.90;;;;;;5098270;28;20388;-75
2022/08/17 00:03:04;;;;;;;43.72;28.65;;;19.50;99.90;;;;;;5068222;28;20055;-76
2022/08/17 00:05:41;;;;;;;48.10;31.15;;;19.50;99.90;;;;;;5098736;28;20383;-75
2022/08/17 00:08:07;;;;;;;46.75;30.95;;;19.50;99.90;;;;;;5104203;28;20039;-75
2022/08/17 00:10:34;;;;;;;47.00;32.20;;;19.50;99.90;;;;;;5097576;28;20051;-74
2022/08/17 00:13:05;;;;;;;44.35;31.45;;;19.50;99.90;;;;;;5127682;27;20042;-74
2022/08/17 00:15:30;;;;;;;52.00;33.13;;;19.50;99.90;;;;;;5134321;27;20164;-74
2022/08/17 00:17:56;;;;;;;49.70;31.98;;;19.50;99.90;;;;;;5116582;27;20082;-75
2022/08/17 00:20:22;;;;;;;45.35;31.13;;;19.50;99.90;;;;;;5108316;28;20055;-74
2022/08/17 00:22:48;;;;;;;45.90;31.13;;;19.50;99.90;;;;;;5110733;27;20052;-74
2022/08/17 00:25:18;;;;;;;48.17;30.35;;;19.50;99.90;;;;;;5108428;27;20036;-73
2022/08/17 00:27:45;;;;;;;56.75;34.53;;;19.50;99.90;;;;;;5096099;28;20063;-74
2022/08/17 00:30:12;;;;;;;45.47;30.98;;;19.40;99.90;;;;;;5116002;27;21346;-74
2022/08/17 00:32:41;;;;;;;45.13;31.23;;;19.40;99.90;;;;;;5109776;27;20047;-74
2022/08/17 00:35:10;;;;;;;44.00;28.98;;;19.40;99.90;;;;;;5096535;28;20062;-74
2022/08/17 00:37:35;;;;;;;45.67;29.75;;;19.40;99.90;;;;;;5098803;28;20093;-74
2022/08/17 00:40:02;;;;;;;32.63;25.40;;;19.40;99.90;;;;;;5114364;27;20055;-75
2022/08/17 00:42:28;;;;;;;32.90;26.20;;;19.30;99.90;;;;;;5113288;27;20058;-74
2022/08/17 00:44:54;;;;;;;33.85;24.67;;;19.20;99.90;;;;;;5114845;27;20044;-74
2022/08/17 00:47:20;;;;;;;31.33;21.77;;;19.00;99.90;;;;;;5129928;27;20130;-74
2022/08/17 00:49:45;;;;;;;34.88;24.45;;;18.90;99.90;;;;;;5090911;28;20505;-75
2022/08/17 00:52:15;;;;;;;43.10;29.40;;;18.90;99.90;;;;;;5119933;27;20049;-74
2022/08/17 00:54:45;;;;;;;50.38;34.08;;;18.90;99.90;;;;;;5107649;28;20047;-74
2022/08/17 00:57:20;;;;;;;48.57;32.03;;;19.00;99.90;;;;;;5099443;28;20050;-74
2022/08/17 01:00:03;;;;;;;50.67;32.45;;;19.00;99.90;;;;;;5125086;27;20128;-74
2022/08/17 01:02:33;;;;;;;49.65;32.95;;;19.00;99.90;;;;;;5087268;28;20122;-75
2022/08/17 01:04:59;;;;;;;55.40;33.33;;;19.00;99.90;;;;;;5089848;28;20047;-75
2022/08/17 01:07:26;;;;;;;48.10;32.58;;;19.00;99.90;;;;;;5114023;27;20044;-74
2022/08/17 01:09:53;;;;;;;54.33;34.45;;;19.00;99.90;;;;;;5104810;28;20472;-74
2022/08/17 01:12:19;;;;;;;43.42;30.27;;;19.00;99.90;;;;;;5127112;27;20420;-75
2022/08/17 01:14:45;;;;;;;39.05;27.67;;;18.90;99.90;;;;;;5138096;27;20035;-74
2022/08/17 01:17:12;;;;;;;41.00;29.98;;;18.80;99.90;;;;;;5144069;27;20466;-74
2022/08/17 01:19:41;;;;;;;42.70;29.67;;;18.70;99.90;;;;;;5103361;28;20044;-75
2022/08/17 01:22:09;;;;;;;39.67;26.75;;;18.70;99.90;;;;;;5144807;27;20042;-75
2022/08/17 01:24:39;;;;;;;42.97;29.88;;;18.70;99.90;;;;;;5140235;27;20384;-74
2022/08/17 01:27:07;;;;;;;51.65;33.30;;;18.70;99.90;;;;;;5115655;27;20126;-74
2022/08/17 01:29:34;;;;;;;45.25;31.08;;;18.80;99.90;;;;;;5113239;28;20181;-74
2022/08/17 01:32:03;;;;;;;48.63;31.98;;;18.80;99.90;;;;;;5113042;28;20035;-75
2022/08/17 01:34:30;;;;;;;54.90;35.53;;;18.80;99.90;;;;;;5107936;27;20047;-74
2022/08/17 01:36:56;;;;;;;54.47;35.58;;;18.90;99.90;;;;;;5105815;28;20039;-74
2022/08/17 01:39:46;;;;;;;54.47;35.28;;;18.90;99.90;;;;;;5079214;28;20045;-74
2022/08/17 01:42:17;;;;;;;44.08;30.83;;;18.90;99.90;;;;;;5109871;28;20039;-74
2022/08/17 01:44:43;;;;;;;95.30;30.30;;;18.90;99.90;;;;;;5089001;28;20387;-74
2022/08/17 01:47:09;;;;;;;67.07;26.75;;;18.80;99.90;;;;;;5085943;28;20128;-74
2022/08/17 01:49:35;;;;;;;39.72;26.90;;;18.80;99.90;;;;;;5112898;28;20097;-74
2022/08/17 01:52:07;;;;;;;44.20;29.17;;;18.70;99.90;;;;;;5097724;28;20486;-74
2022/08/17 01:54:34;;;;;;;44.15;30.40;;;18.70;99.90;;;;;;5108966;28;20036;-73
2022/08/17 01:56:59;;;;;;;40.78;29.65;;;18.80;99.90;;;;;;5110241;28;20051;-74
2022/08/17 01:59:25;;;;;;;46.45;24.98;;;18.80;99.90;;;;;;5146722;27;20047;-74
2022/08/17 02:01:52;;;;;;;32.30;23.75;;;18.70;99.90;;;;;;5138847;27;20040;-74
2022/08/17 02:04:20;;;;;;;29.50;22.85;;;18.60;99.90;;;;;;5081997;28;20073;-74
2022/08/17 02:06:47;;;;;;;37.75;26.92;;;18.60;99.90;;;;;;5131372;27;20487;-73
2022/08/17 02:09:13;;;;;;;42.50;27.45;;;18.50;99.90;;;;;;5091269;28;20081;-72
2022/08/17 02:11:39;;;;;;;47.85;31.73;;;18.60;99.90;;;;;;5075869;28;20052;-74
2022/08/17 02:14:09;;;;;;;49.28;33.35;;;18.60;99.90;;;;;;5131999;27;20118;-73
2022/08/17 02:16:37;;;;;;;58.58;35.88;;;18.60;99.90;;;;;;5091563;28;20486;-73
2022/08/17 02:19:05;;;;;;;45.33;31.27;;;18.70;99.90;;;;;;5094885;28;20066;-73
2022/08/17 02:21:31;;;;;;;37.90;28.08;;;18.70;99.90;;;;;;5122380;27;20361;-73
2022/08/17 02:23:58;;;;;;;40.58;28.20;;;18.60;99.90;;;;;;5125465;27;20528;-73
2022/08/17 02:26:23;;;;;;;40.13;29.02;;;18.50;99.90;;;;;;5090392;28;20089;-75
2022/08/17 02:28:49;;;;;;;49.13;33.55;;;18.50;99.90;;;;;;5080583;28;20071;-73
2022/08/17 02:31:15;;;;;;;38.83;26.75;;;18.50;99.90;;;;;;5099629;28;20043;-73
2022/08/17 02:33:42;;;;;;;57.17;35.83;;;18.60;99.90;;;;;;5090577;28;20459;-73
2022/08/17 02:36:08;;;;;;;48.17;32.10;;;18.70;99.90;;;;;;5094544;28;20502;-74
2022/08/17 02:38:35;;;;;;;38.35;28.27;;;18.70;99.90;;;;;;5084510;28;20171;-73
2022/08/17 02:41:01;;;;;;;32.58;25.08;;;18.60;99.90;;;;;;5113219;27;20066;-74
2022/08/17 02:43:27;;;;;;;34.25;24.55;;;18.50;99.90;;;;;;5123924;27;20040;-75
2022/08/17 02:45:54;;;;;;;43.53;28.77;;;18.50;99.90;;;;;;5096124;28;20413;-75
2022/08/17 02:48:21;;;;;;;33.90;23.63;;;18.50;99.90;;;;;;5128766;27;20122;-73
2022/08/17 02:50:47;;;;;;;41.17;26.92;;;18.50;99.90;;;;;;5106858;28;20096;-73
2022/08/17 02:53:14;;;;;;;55.90;34.05;;;18.50;99.90;;;;;;5105473;27;20044;-73
2022/08/17 02:59:50;;;;;;;57.88;37.30;;;18.60;99.90;;;;;;5065779;22;20091;-73
2022/08/17 03:02:16;;;;;;;60.25;37.35;;;18.60;99.90;;;;;;5066476;28;20083;-73
2022/08/17 03:04:51;;;;;;;57.25;36.28;;;18.70;99.90;;;;;;5069285;28;20076;-73
2022/08/17 03:07:19;;;;;;;54.45;35.90;;;18.70;99.90;;;;;;5067053;28;20044;-73
2022/08/17 03:09:44;;;;;;;55.25;34.92;;;18.80;99.90;;;;;;5061165;28;20037;-75
2022/08/17 03:12:14;;;;;;;60.70;36.60;;;18.80;99.90;;;;;;5050916;28;20048;-74
2022/08/17 03:14:41;;;;;;;60.47;35.72;;;18.70;99.90;;;;;;5068777;28;20431;-73
2022/08/17 03:17:11;;;;;;;63.58;36.13;;;18.70;99.90;;;;;;5064943;28;20044;-74
2022/08/17 03:19:37;;;;;;;59.10;35.15;;;18.70;99.90;;;;;;5042513;28;20038;-73
2022/08/17 03:22:07;;;;;;;62.53;37.20;;;18.70;99.90;;;;;;5049129;28;20070;-73
2022/08/17 03:24:33;;;;;;;49.50;34.22;;;18.70;99.90;;;;;;5065635;28;20072;-74
2022/08/17 03:26:59;;;;;;;57.63;36.15;;;18.70;99.90;;;;;;5053599;28;20066;-74
2022/08/17 03:29:25;;;;;;;60.60;36.83;;;18.70;99.90;;;;;;5030854;28;20037;-73
2022/08/17 03:31:51;;;;;;;60.25;37.58;;;18.70;99.90;;;;;;5024395;28;20044;-73
2022/08/17 03:34:17;;;;;;;58.75;36.58;;;18.70;99.90;;;;;;5042838;28;20041;-73
2022/08/17 03:36:43;;;;;;;60.25;36.85;;;18.70;99.90;;;;;;5065248;28;21957;-73
2022/08/17 03:39:09;;;;;;;52.55;35.72;;;18.70;99.90;;;;;;5061727;28;20041;-74
2022/08/17 03:41:35;;;;;;;60.00;36.13;;;18.70;99.90;;;;;;5064707;28;20067;-74
2022/08/17 03:44:01;;;;;;;57.03;36.55;;;18.70;99.90;;;;;;5051198;28;20082;-74
2022/08/17 03:57:27;;;;;;;59.92;36.03;;;18.60;99.90;;;;;;5059765;28;20048;-74
2022/08/17 03:59:54;;;;;;;61.00;36.80;;;18.60;99.90;;;;;;5022664;28;20091;-73
2022/08/17 04:02:29;;;;;;;58.13;36.10;;;18.60;99.90;;;;;;5043787;28;20047;-74
2022/08/17 04:04:55;;;;;;;56.92;36.53;;;18.70;99.90;;;;;;5057036;28;20484;-74
2022/08/17 04:07:24;;;;;;;63.70;37.50;;;18.70;99.90;;;;;;5059226;28;20053;-73
2022/08/17 04:09:50;;;;;;;63.92;38.53;;;18.70;99.90;;;;;;5067593;28;20044;-73
2022/08/17 04:12:18;;;;;;;56.78;35.92;;;18.70;99.90;;;;;;5051372;28;20032;-73
2022/08/17 04:14:45;;;;;;;62.13;39.15;;;18.70;99.90;;;;;;5066006;28;20098;-74
2022/08/17 04:17:11;;;;;;;66.63;39.72;;;18.70;99.90;;;;;;5045706;28;20064;-74
2022/08/17 04:19:37;;;;;;;67.25;38.25;;;18.70;99.90;;;;;;5043580;28;20048;-73
2022/08/17 04:22:04;;;;;;;63.25;38.72;;;18.70;99.90;;;;;;5055742;28;20045;-74
2022/08/17 04:24:31;;;;;;;60.55;36.83;;;18.70;99.90;;;;;;5052885;28;20049;-73
2022/08/17 04:26:58;;;;;;;72.65;42.30;;;18.70;99.90;;;;;;5065846;28;20040;-74
2022/08/17 04:29:24;;;;;;;64.82;38.00;;;18.80;99.90;;;;;;5035132;28;20041;-74
2022/08/17 04:31:51;;;;;;;75.88;39.53;;;18.70;99.90;;;;;;5068451;28;20052;-73
2022/08/17 04:34:18;;;;;;;69.15;40.83;;;18.70;99.90;;;;;;5062366;28;20045;-73
2022/08/17 04:36:44;;;;;;;78.55;42.58;;;18.70;99.90;;;;;;5041916;28;20040;-73
2022/08/17 04:39:10;;;;;;;81.90;44.08;;;18.70;99.90;;;;;;5058086;28;20044;-73
2022/08/17 04:44:21;;;;;;;78.90;45.72;;;18.80;99.90;;;;;;5062983;28;20067;-75
2022/08/17 04:46:47;;;;;;;73.00;43.70;;;18.80;99.90;;;;;;5047154;28;20041;-73
2022/08/17 04:49:13;;;;;;;84.80;46.13;;;18.80;99.90;;;;;;5042321;28;20043;-73
2022/08/17 04:51:45;;;;;;;79.75;46.15;;;19.00;99.90;;;;;;5044797;28;20095;-73
2022/08/17 04:54:12;;;;;;;;;;;19.00;99.90;;;;;;5062908;28;20033;-73
2022/08/17 04:56:39;;;;;;;73.28;43.13;;;19.00;99.90;;;;;;5070545;28;19923;-74
2022/08/17 04:59:18;;;;;;;93.72;48.97;;;19.10;99.90;;;;;;5070029;28;20055;-73
2022/08/17 05:01:46;;;;;;;81.63;46.28;;;19.00;99.90;;;;;;5061713;28;20495;-73
2022/08/17 05:04:16;;;;;;;76.38;42.83;;;19.20;99.90;;;;;;5061995;28;20037;-73
2022/08/17 05:06:42;;;;;;;81.00;45.22;;;19.30;99.90;;;;;;5051010;28;20044;-73
2022/08/17 05:09:08;;;;;;;82.43;47.00;;;19.30;99.90;;;;;;5064732;28;20086;-74
2022/08/17 05:11:34;;;;;;;93.95;49.17;;;19.40;99.90;;;;;;5071609;28;20063;-74
2022/08/17 05:14:01;;;;;;;94.72;49.30;;;19.50;99.90;;;;;;5055033;28;20072;-74
2022/08/17 05:16:28;;;;;;;86.97;47.72;;;19.40;99.90;;;;;;5070034;28;20048;-73
2022/08/17 05:18:54;;;;;;;83.75;46.97;;;19.50;99.90;;;;;;5072190;28;20539;-74
2022/08/17 05:21:22;;;;;;;97.95;50.58;;;19.50;99.90;;;;;;5057747;28;20041;-74
2022/08/17 05:23:48;;;;;;;93.93;49.38;;;19.60;99.90;;;;;;5055618;28;20044;-73
2022/08/17 05:26:17;;;;;;;91.68;49.42;;;19.60;99.90;;;;;;5066983;28;20072;-73
2022/08/17 05:28:43;;;;;;;94.97;48.92;;;19.60;99.90;;;;;;5068763;28;20045;-74
2022/08/17 05:31:09;;;;;;;89.05;48.42;;;19.60;99.90;;;;;;5040557;28;20044;-73
2022/08/17 05:33:37;;;;;;;90.80;50.13;;;19.60;99.90;;;;;;5053212;28;20424;-74
2022/08/17 05:36:05;;;;;;;87.18;47.38;;;19.60;99.90;;;;;;5040016;28;20036;-74
2022/08/17 05:38:31;;;;;;;93.30;48.53;;;19.70;99.90;;;;;;5071204;28;20106;-74
2022/08/17 05:40:59;;;;;;;81.63;46.47;;;19.80;99.90;;;;;;5069379;28;20123;-74
2022/08/17 05:43:28;;;;;;;86.70;46.00;;;19.80;99.90;;;;;;5063452;28;20056;-73
2022/08/17 05:46:18;;;;;;;70.78;41.50;;;19.80;99.90;;;;;;5050922;28;20729;-74
2022/08/17 05:48:51;;;;;;;70.68;38.88;;;19.80;99.90;;;;;;5067993;28;20044;-73
2022/08/17 05:51:32;;;;;;;72.60;38.65;;;19.90;99.90;;;;;;5062157;28;20420;-73
2022/08/17 05:54:08;;;;;;;70.03;39.63;;;19.90;99.90;;;;;;5062089;28;20047;-73
2022/08/17 05:57:11;;;;;;;71.80;39.58;;;19.80;99.90;;;;;;5066673;28;20078;-73
2022/08/17 05:59:52;;;;;;;60.83;36.63;;;19.80;99.90;;;;;;5066243;28;20052;-73
2022/08/17 06:02:38;;;;;;;60.00;35.40;;;19.80;99.90;;;;;;5067781;28;20465;-73
2022/08/17 06:05:24;;;;;;;55.30;32.83;;;19.90;99.90;;;;;;5035545;28;20098;-73
2022/08/17 06:08:15;;;;;;;53.05;31.52;;;19.90;99.90;;;;;;5024638;28;20052;-73
2022/08/17 06:10:51;;;;;;;51.75;31.40;;;19.80;99.90;;;;;;5062278;28;20052;-74
2022/08/17 06:13:30;;;;;;;53.13;30.52;;;19.80;99.90;;;;;;5069388;28;20045;-73
2022/08/17 06:16:19;;;;;;;45.05;29.13;;;19.80;99.90;;;;;;5042244;28;20055;-74
2022/08/17 06:18:49;;;;;;;46.45;28.90;;;19.90;99.90;;;;;;5059499;28;20041;-73
2022/08/17 06:21:17;;;;;;;48.95;30.23;;;20.00;99.90;;;;;;5056560;28;20056;-73
2022/08/17 06:24:01;;;;;;;46.22;28.80;;;20.00;99.90;;;;;;5043270;28;20049;-74
2022/08/17 06:26:36;;;;;;;44.38;29.48;;;20.10;99.90;;;;;;5048954;28;20050;-73
2022/08/17 06:29:27;;;;;;;47.85;29.05;;;20.20;99.90;;;;;;5052652;28;20556;-74
2022/08/17 06:31:53;;;;;;;45.85;28.08;;;20.20;99.90;;;;;;5062476;28;20036;-74
2022/08/17 06:34:19;;;;;;;49.58;31.30;;;20.20;99.90;;;;;;5035003;28;20047;-74
2022/08/17 06:36:59;;;;;;;46.67;29.52;;;20.20;99.90;;;;;;5070200;28;20033;-74
2022/08/17 06:39:36;;;;;;;44.13;28.70;;;20.10;99.90;;;;;;5046871;28;20119;-74
2022/08/17 06:42:11;;;;;;;43.38;26.48;;;20.10;99.90;;;;;;5070843;28;20381;-74
2022/08/17 06:44:42;;;;;;;44.72;27.63;;;20.00;99.90;;;;;;5068376;28;20384;-74
2022/08/17 06:47:24;;;;;;;40.88;27.27;;;20.00;99.90;;;;;;5064985;28;20052;-73
2022/08/17 06:50:10;;;;;;;43.45;27.33;;;20.00;99.90;;;;;;5062201;28;20078;-74
2022/08/17 06:52:59;;;;;;;42.13;28.33;;;19.90;99.90;;;;;;5064899;28;20044;-74
2022/08/17 06:55:45;;;;;;;42.33;27.67;;;19.90;99.90;;;;;;5066896;28;20052;-74
2022/08/17 06:58:13;;;;;;;45.75;28.83;;;19.80;99.90;;;;;;5069491;28;20084;-74
2022/08/17 07:00:44;;;;;;;39.35;26.35;;;19.80;99.90;;;;;;5051236;28;20079;-73
2022/08/17 07:03:36;;;;;;;40.22;27.80;;;19.80;99.90;;;;;;5068533;28;20384;-73
2022/08/17 07:06:19;;;;;;;43.58;27.52;;;19.80;99.90;;;;;;5062717;28;20376;-74
2022/08/17 07:09:07;;;;;;;43.15;27.35;;;19.80;99.90;;;;;;5067498;28;20037;-74
2022/08/17 07:12:08;;;;;;;42.55;27.27;;;19.80;99.90;;;;;;5052735;28;20062;-74
2022/08/17 07:14:38;;;;;;;;;;;19.80;99.90;;;;;;5047229;28;20116;-74
2022/08/17 07:17:11;;;;;;;39.78;27.38;;;19.80;99.90;;;;;;5061689;28;19916;-74
2022/08/17 07:19:39;;;;;;;41.63;27.73;;;19.80;99.90;;;;;;5037544;28;20044;-74
2022/08/17 07:22:17;;;;;;;42.28;27.55;;;19.80;99.90;;;;;;5053644;28;20033;-74
2022/08/17 07:24:57;;;;;;;42.92;26.73;;;19.80;99.90;;;;;;5054637;28;20364;-74
2022/08/17 07:27:31;;;;;;;38.55;25.95;;;19.70;99.90;;;;;;5040887;28;20040;-74
2022/08/17 07:30:05;;;;;;;44.25;27.02;;;19.70;99.90;;;;;;5070851;28;20047;-73
2022/08/17 07:32:39;;;;;;;41.08;26.63;;;19.70;99.90;;;;;;5052361;28;20041;-74
2022/08/17 07:35:09;;;;;;;41.90;25.77;;;19.60;99.90;;;;;;5033677;28;20048;-72
2022/08/17 07:37:37;;;;;;;43.17;25.92;;;19.60;99.90;;;;;;5036413;28;20040;-72
2022/08/17 07:40:19;;;;;;;40.33;25.95;;;19.60;99.90;;;;;;5050867;28;20064;-72
2022/08/17 07:43:03;;;;;;;40.38;25.73;;;19.50;99.90;;;;;;5054434;28;20049;-73
2022/08/17 07:48:23;;;;;;;46.42;29.15;;;19.50;99.90;;;;;;5068838;28;20095;-72
2022/08/17 07:50:52;;;;;;;44.22;28.70;;;19.60;99.90;;;;;;5070094;28;20070;-73
2022/08/17 07:53:21;;;;;;;46.92;29.15;;;19.70;99.90;;;;;;5069581;28;20150;-73
2022/08/17 07:55:48;;;;;;;41.05;27.35;;;19.70;99.90;;;;;;5063440;28;20362;-73
2022/08/17 07:58:20;;;;;;;42.22;28.08;;;19.80;99.90;;;;;;5063662;28;20041;-73
2022/08/17 08:01:01;;;;;;;43.20;28.60;;;19.90;99.90;;;;;;5046666;28;20154;-73
2022/08/17 08:03:30;;;;;;;44.42;28.42;;;20.00;99.90;;;;;;5065369;28;20384;-73
2022/08/17 08:06:00;;;;;;;41.80;27.17;;;20.10;99.90;;;;;;5068143;28;20051;-73
2022/08/17 08:08:49;;;;;;;44.85;29.35;;;20.30;99.90;;;;;;5039713;28;20041;-74
2022/08/17 08:11:29;;;;;;;40.30;26.33;;;20.40;99.90;;;;;;5044069;28;20050;-73
2022/08/17 08:14:14;;;;;;;43.00;28.02;;;20.50;99.90;;;;;;5050354;28;20487;-73
2022/08/17 08:16:55;;;;;;;40.20;26.30;;;20.70;99.90;;;;;;5048644;28;20048;-73
2022/08/17 08:19:25;;;;;;;44.25;26.17;;;21.00;99.90;;;;;;5060416;28;20393;-73
2022/08/17 08:21:57;;;;;;;42.30;26.58;;;21.20;99.90;;;;;;5056278;28;20044;-74
2022/08/17 08:24:55;;;;;;;44.45;27.23;;;21.40;99.90;;;;;;5041680;28;20033;-74
2022/08/17 08:27:44;;;;;;;37.35;26.27;;;21.60;99.90;;;;;;5039029;28;20029;-74
2022/08/17 08:30:20;;;;;;;62.80;29.15;;;21.70;99.90;;;;;;5046997;28;20048;-74
2022/08/17 08:33:11;;;;;;;42.95;28.15;;;21.80;99.90;;;;;;5053562;28;20037;-74
2022/08/17 08:35:52;;;;;;;44.55;28.30;;;21.90;99.90;;;;;;5053516;28;20484;-74
2022/08/17 08:38:24;;;;;;;40.55;26.90;;;22.10;99.90;;;;;;5057974;28;20491;-74
2022/08/17 08:41:30;;;;;;;44.88;28.77;;;22.20;99.90;;;;;;5068616;28;20049;-74
2022/08/17 08:44:17;;;;;;;41.67;26.90;;;22.30;99.90;;;;;;5062201;28;20829;-74
2022/08/17 08:47:03;;;;;;;43.42;28.00;;;22.30;99.90;;;;;;5049727;28;20085;-73
2022/08/17 08:49:59;;;;;;;49.28;31.25;;;22.40;99.90;;;;;;5046643;28;20097;-74
2022/08/17 08:52:41;;;;;;;40.83;28.23;;;22.50;99.90;;;;;;5067828;28;20123;-74
2022/08/17 08:55:36;;;;;;;41.00;27.88;;;22.50;99.90;;;;;;5053384;28;20045;-74
2022/08/17 08:58:09;;;;;;;39.10;28.65;;;22.50;99.90;;;;;;5045591;28;20095;-74
2022/08/17 09:00:42;;;;;;;39.53;28.23;;;22.70;99.90;;;;;;5066803;28;20440;-74
2022/08/17 09:03:23;;;;;;;40.42;29.48;;;22.90;99.90;;;;;;5045184;28;20045;-74
2022/08/17 09:06:20;;;;;;;41.30;28.35;;;23.10;99.90;;;;;;5053411;28;20477;-74
2022/08/17 09:08:58;;;;;;;41.33;29.40;;;23.20;99.90;;;;;;5036124;28;20055;-75
2022/08/17 09:11:40;;;;;;;42.08;29.58;;;23.40;99.90;;;;;;5063692;28;20029;-74
2022/08/17 09:14:09;;;;;;;41.28;30.80;;;23.40;99.90;;;;;;5049331;28;20047;-75
2022/08/17 09:16:55;;;;;;;39.03;30.63;;;23.50;99.90;;;;;;5067858;28;20503;-75
2022/08/17 09:19:32;;;;;;;39.63;29.65;;;23.50;99.90;;;;;;5072884;28;20036;-74
2022/08/17 09:22:32;;;;;;;40.65;30.75;;;23.60;99.90;;;;;;5072108;28;20389;-74
2022/08/17 09:25:09;;;;;;;43.28;30.33;;;23.70;99.90;;;;;;5072816;28;20044;-74
2022/08/17 09:28:06;;;;;;;39.17;29.60;;;23.80;99.90;;;;;;5067713;28;20053;-74
2022/08/17 09:30:53;;;;;;;42.15;29.83;;;24.00;99.90;;;;;;5063728;28;20040;-75
2022/08/17 09:33:25;;;;;;;40.58;30.00;;;24.00;99.90;;;;;;5047425;28;20166;-75
2022/08/17 09:36:17;;;;;;;40.58;29.70;;;24.10;99.90;;;;;;5062507;28;20036;-75
2022/08/17 09:38:58;;;;;;;42.92;32.42;;;24.30;99.90;;;;;;5061259;28;20040;-74
2022/08/17 09:41:56;;;;;;;42.67;32.38;;;24.40;99.90;;;;;;5061773;28;20060;-75
2022/08/17 09:44:50;;;;;;;40.22;30.63;;;24.50;99.90;;;;;;5056320;28;20048;-75
2022/08/17 09:47:24;;;;;;;39.45;30.08;;;24.60;99.90;;;;;;5053383;28;20080;-75
2022/08/17 09:49:59;;;;;;;39.42;29.80;;;24.60;99.90;;;;;;5071305;28;20040;-75
2022/08/17 09:52:28;;;;;;;37.25;29.60;;;24.60;99.90;;;;;;5066276;28;20032;-75
2022/08/17 09:54:57;;;;;;;37.60;28.90;;;24.60;99.90;;;;;;5067324;28;20579;-75
2022/08/17 09:57:31;;;;;;;40.90;29.33;;;24.60;99.90;;;;;;5062229;28;20163;-75
2022/08/17 10:00:14;;;;;;;36.22;27.77;;;24.50;99.90;;;;;;5045125;28;20477;-75
2022/08/17 10:02:59;;;;;;;143.98;33.42;;;24.40;99.90;;;;;;5047076;28;20037;-75
2022/08/17 10:05:42;;;;;;;39.70;29.13;;;24.40;99.90;;;;;;5057244;28;20040;-75
2022/08/17 10:08:16;;;;;;;33.47;27.67;;;24.40;99.90;;;;;;5064829;28;20052;-75
2022/08/17 10:11:04;;;;;;;35.88;28.10;;;24.00;99.90;;;;;;5062301;28;20071;-75
2022/08/17 10:13:43;;;;;;;51.83;30.25;;;24.30;99.90;;;;;;5040464;28;20045;-74
2022/08/17 10:16:36;;;;;;;44.10;31.33;;;24.30;99.90;;;;;;5063173;28;20044;-75
2022/08/17 10:19:12;;;;;;;44.72;34.35;;;24.40;99.90;;;;;;5053522;28;20119;-75
2022/08/17 10:27:32;;;;;;;43.83;32.97;;;24.70;99.90;;;;;;5067344;28;20482;-74
2022/08/17 10:30:03;;;;;;;39.28;31.83;;;24.80;99.90;;;;;;5049783;28;20495;-75
2022/08/17 10:32:32;;;;;;;39.15;30.73;;;24.90;99.90;;;;;;5066541;28;20583;-74
2022/08/17 10:35:24;;;;;;;41.78;30.88;;;24.90;99.90;;;;;;5067649;28;20394;-75
2022/08/17 10:38:22;;;;;;;38.78;30.38;;;25.10;99.90;;;;;;5046229;28;20107;-75
2022/08/17 10:41:04;;;;;;;37.40;29.90;;;25.20;99.90;;;;;;5068325;28;20044;-75
2022/08/17 10:43:52;;;;;;;36.80;28.92;;;25.30;99.90;;;;;;5059605;28;20049;-75
2022/08/17 10:46:27;;;;;;;41.95;31.50;;;25.30;99.90;;;;;;5063064;28;20127;-75
2022/08/17 10:49:11;;;;;;;44.00;31.20;;;25.20;99.90;;;;;;5085048;28;20059;-75
2022/08/17 10:51:39;;;;;;;39.45;31.15;;;25.20;99.90;;;;;;5068371;28;20041;-75
2022/08/17 10:54:26;;;;;;;40.42;30.83;;;25.20;99.90;;;;;;5073784;28;20104;-75
2022/08/17 10:56:54;;;;;;;41.22;31.17;;;25.20;99.90;;;;;;5068986;28;20120;-75
2022/08/17 10:59:35;;;;;;;39.35;31.05;;;25.20;99.90;;;;;;5062720;28;20056;-75
2022/08/17 11:02:13;;;;;;;46.42;32.58;;;25.20;99.90;;;;;;5066677;28;20060;-75
2022/08/17 11:04:48;;;;;;;48.10;32.65;;;25.20;99.90;;;;;;5064251;28;20040;-75
2022/08/17 11:07:32;;;;;;;50.53;32.60;;;25.20;99.90;;;;;;5067787;28;20036;-75
2022/08/17 11:10:25;;;;;;;71.45;33.47;;;25.20;99.90;;;;;;5066038;28;20117;-75
2022/08/17 11:13:25;;;;;;;49.63;34.17;;;25.10;99.90;;;;;;5063139;28;20097;-75
2022/08/17 11:16:46;;;;;;;44.08;33.20;;;25.20;99.90;;;;;;5070954;28;20049;-75
2022/08/17 11:19:12;;;;;;;;;;;25.20;99.90;;;;;;5060506;28;20049;-75
2022/08/17 11:22:12;;;;;;;43.03;32.10;;;25.00;99.90;;;;;;5082239;28;19923;-75
2022/08/17 11:24:41;;;;;;;56.42;32.90;;;25.00;99.90;;;;;;5067466;28;20041;-75
2022/08/17 11:27:27;;;;;;;42.65;33.22;;;24.90;99.90;;;;;;5068209;28;20043;-76
2022/08/17 11:29:54;;;;;;;43.65;32.40;;;25.00;99.90;;;;;;5046643;28;20048;-74
2022/08/17 11:32:29;;;;;;;41.05;31.58;;;24.90;99.90;;;;;;5063208;28;20142;-76
2022/08/17 11:35:31;;;;;;;42.60;31.17;;;25.00;99.90;;;;;;5054277;28;20040;-76
2022/08/17 11:38:06;;;;;;;41.63;31.60;;;25.10;99.90;;;;;;5026267;28;20066;-75
2022/08/17 11:40:58;;;;;;;42.90;32.72;;;25.30;99.90;;;;;;5065997;28;20048;-75
2022/08/17 11:43:27;;;;;;;42.25;33.25;;;25.60;99.90;;;;;;5036983;28;20125;-75
2022/08/17 11:46:05;;;;;;;41.65;32.20;;;25.70;99.90;;;;;;5050023;28;20057;-76
2022/08/17 11:52:05;;;;;;;42.17;33.75;;;25.90;99.90;;;;;;5074504;28;20060;-75
2022/08/17 11:54:44;;;;;;;77.63;34.67;;;25.90;99.90;;;;;;5053797;28;20041;-75
2022/08/17 11:57:25;;;;;;;46.08;34.25;;;26.00;99.90;;;;;;5069113;28;20036;-75
2022/08/17 11:59:50;;;;;;;40.65;32.88;;;26.00;99.90;;;;;;5073323;28;20068;-75
2022/08/17 12:02:29;;;;;;;39.55;31.55;;;26.10;99.90;;;;;;5051375;28;20461;-75
2022/08/17 12:05:14;;;;;;;39.40;31.45;;;26.20;99.90;;;;;;5057305;28;20053;-75
2022/08/17 12:07:45;;;;;;;35.55;30.23;;;26.20;99.90;;;;;;5065636;28;20167;-75
2022/08/17 12:10:12;;;;;;;;;;;26.20;99.90;;;;;;5067056;28;20053;-75
2022/08/17 12:12:42;;;;;;;39.58;30.15;;;25.90;99.90;;;;;;5067163;28;19917;-74
2022/08/17 12:15:20;;;;;;;35.10;29.23;;;25.80;99.90;;;;;;5084392;28;20131;-75
2022/08/17 12:17:55;;;;;;;31.20;27.73;;;25.80;99.90;;;;;;5060261;28;20040;-75
2022/08/17 12:20:40;;;;;;;32.55;28.15;;;25.80;99.90;;;;;;5073313;28;20094;-75
2022/08/17 12:23:32;;;;;;;35.72;29.02;;;25.80;99.90;;;;;;5066713;28;20806;-75
2022/08/17 12:26:19;;;;;;;31.67;27.70;;;25.80;99.90;;;;;;5067073;28;20044;-75
2022/08/17 12:28:48;;;;;;;30.80;26.92;;;25.80;99.90;;;;;;5073742;28;20094;-75
2022/08/17 12:31:42;;;;;;;34.65;28.10;;;25.90;99.90;;;;;;5072883;28;20445;-75
2022/08/17 12:34:19;;;;;;;34.92;27.15;;;26.00;99.90;;;;;;5069091;28;20078;-75
2022/08/17 12:36:49;;;;;;;34.55;27.27;;;26.00;99.90;;;;;;5057913;28;20052;-75
2022/08/17 12:39:21;;;;;;;30.27;26.98;;;26.00;99.90;;;;;;5068075;28;20040;-75
2022/08/17 12:41:51;;;;;;;33.63;28.30;;;26.00;99.90;;;;;;5046973;28;20086;-74
2022/08/17 12:44:18;;;;;;;34.95;27.95;;;25.80;99.90;;;;;;5070871;28;20044;-75
2022/08/17 12:46:52;;;;;;;33.75;27.58;;;25.80;99.90;;;;;;5073715;28;20098;-75
2022/08/17 12:49:42;;;;;;;30.67;26.80;;;25.80;99.90;;;;;;5065884;28;20090;-75
2022/08/17 12:52:08;;;;;;;33.72;27.60;;;25.80;99.90;;;;;;5066553;28;20075;-75
2022/08/17 12:55:12;;;;;;;33.35;27.27;;;25.70;99.90;;;;;;5068960;28;20125;-75
2022/08/17 12:57:42;;;;;;;33.63;27.02;;;25.80;99.90;;;;;;5052429;28;20079;-75
2022/08/17 13:00:20;;;;;;;31.40;25.60;;;26.00;99.90;;;;;;5071494;28;20416;-75
2022/08/17 13:03:11;;;;;;;31.60;25.63;;;25.80;99.90;;;;;;5064064;28;20045;-75
2022/08/17 13:05:38;;;;;;;;;;;25.60;99.90;;;;;;5054876;28;20040;-75
2022/08/17 13:08:16;;;;;;;30.95;25.92;;;25.60;99.90;;;;;;5069327;28;19928;-75
2022/08/17 13:10:42;;;;;;;28.92;25.83;;;25.50;99.90;;;;;;5060632;28;20047;-75
2022/08/17 13:13:25;;;;;;;30.33;25.23;;;25.60;99.90;;;;;;5069132;28;20086;-75
2022/08/17 13:16:11;;;;;;;33.15;24.77;;;25.50;99.90;;;;;;5064208;28;20091;-75
2022/08/17 13:18:41;;;;;;;28.55;24.27;;;25.40;99.90;;;;;;5070801;28;20037;-75
2022/08/17 13:21:22;;;;;;;27.38;23.15;;;25.40;99.90;;;;;;5071387;28;20127;-76
2022/08/17 13:24:15;;;;;;;28.95;24.30;;;25.30;99.90;;;;;;5065354;28;20389;-75
2022/08/17 13:26:59;;;;;;;28.27;22.98;;;25.20;99.90;;;;;;5054335;28;20456;-75
2022/08/17 13:29:31;;;;;;;24.98;22.08;;;25.10;99.90;;;;;;5063091;28;20381;-75
2022/08/17 13:32:03;;;;;;;24.52;21.92;;;25.10;99.90;;;;;;5071190;28;20538;-75
2022/08/17 13:34:52;;;;;;;25.88;21.70;;;25.10;99.90;;;;;;5040275;28;20044;-75